createdAt,value
2019-04-26T00:01:14.533Z,4.00
2019-04-26T00:03:45.394Z,4.70
2019-04-26T00:06:15.107Z,4.67
2019-04-26T00:08:47.802Z,5.07
2019-04-26T00:11:48.520Z,4.43
2019-04-26T00:14:36.735Z,4.73
2019-04-26T00:17:28.492Z,7.50
2019-04-26T00:19:58.358Z,6.00
2019-04-26T00:22:28.076Z,5.07
2019-04-26T00:24:58.032Z,4.60
2019-04-26T00:27:27.184Z,4.63
2019-04-26T00:29:56.332Z,4.10
2019-04-26T00:32:26.058Z,4.00
2019-04-26T00:34:55.304Z,4.00
2019-04-26T00:37:24.509Z,4.40
2019-04-26T00:39:53.696Z,4.40
2019-04-26T00:42:23.404Z,4.30
2019-04-26T00:44:52.643Z,4.70
2019-04-26T00:47:24.467Z,4.77
2019-04-26T00:49:54.112Z,4.83
2019-04-26T00:52:23.707Z,5.07
2019-04-26T00:54:52.989Z,4.40
2019-04-26T00:57:22.442Z,4.50
2019-04-26T00:59:51.710Z,4.63
2019-04-26T01:02:27.348Z,4.67
2019-04-26T01:04:56.556Z,4.43
2019-04-26T01:07:25.747Z,4.87
2019-04-26T01:09:54.774Z,4.83
2019-04-26T01:12:23.951Z,4.90
2019-04-26T01:14:53.161Z,5.47
2019-04-26T01:17:22.872Z,4.93
2019-04-26T01:19:54.704Z,4.40
2019-04-26T01:22:27.630Z,5.07
2019-04-26T01:24:58.429Z,4.60
2019-04-26T01:27:30.038Z,5.20
2019-04-26T01:30:03.031Z,4.90
2019-04-26T01:32:33.988Z,5.13
2019-04-26T01:35:03.090Z,4.83
2019-04-26T01:37:32.844Z,4.97
2019-04-26T01:40:07.455Z,4.97
2019-04-26T01:42:48.156Z,4.83
2019-04-26T01:45:25.828Z,5.27
2019-04-26T01:47:58.206Z,5.30
2019-04-26T01:50:29.987Z,5.20
2019-04-26T01:53:00.761Z,5.20
2019-04-26T01:55:32.510Z,5.03
2019-04-26T01:58:06.190Z,5.43
2019-04-26T02:00:55.383Z,5.67
2019-04-26T02:03:27.803Z,5.47
2019-04-26T02:05:56.940Z,6.03
2019-04-26T02:08:26.317Z,5.40
2019-04-26T02:10:55.328Z,5.70
2019-04-26T02:13:25.337Z,6.20
2019-04-26T02:15:54.483Z,5.60
2019-04-26T02:18:25.396Z,5.97
2019-04-26T02:21:08.397Z,6.07
2019-04-26T02:23:46.968Z,6.10
2019-04-26T02:26:33.048Z,6.43
2019-04-26T02:29:03.807Z,6.37
2019-04-26T02:31:33.752Z,7.13
2019-04-26T02:34:04.806Z,6.40
2019-04-26T02:36:55.201Z,6.43
2019-04-26T02:39:17.401Z,6.37
2019-04-26T02:41:49.312Z,6.17
2019-04-26T02:44:22.125Z,6.80
2019-04-26T02:47:21.440Z,7.20
2019-04-26T02:49:54.031Z,7.17
2019-04-26T02:52:39.729Z,7.13
2019-04-26T02:55:15.165Z,7.30
2019-04-26T02:57:50.215Z,6.90
2019-04-26T03:00:20.637Z,7.70
2019-04-26T03:02:55.598Z,7.10
2019-04-26T03:05:25.909Z,7.67
2019-04-26T03:08:05.227Z,7.47
2019-04-26T03:10:40.385Z,7.10
2019-04-26T03:13:18.304Z,7.13
2019-04-26T03:16:15.349Z,7.43
2019-04-26T03:19:05.704Z,7.90
2019-04-26T03:21:56.298Z,7.67
2019-04-26T03:24:34.548Z,7.83
2019-04-26T03:27:33.618Z,7.70
2019-04-26T03:30:19.881Z,8.20
2019-04-26T03:33:12.502Z,7.67
2019-04-26T03:36:37.079Z,7.13
2019-04-26T03:39:23.245Z,8.30
2019-04-26T03:42:30.067Z,8.13
2019-04-26T03:45:09.789Z,7.50
2019-04-26T03:47:45.893Z,8.17
2019-04-26T03:50:22.689Z,9.07
2019-04-26T03:53:10.706Z,8.43
2019-04-26T03:56:23.185Z,8.63
2019-04-26T03:59:14.841Z,8.23
2019-04-26T04:01:53.529Z,8.10
2019-04-26T04:04:46.752Z,7.90
2019-04-26T04:07:18.878Z,9.00
2019-04-26T04:09:52.066Z,8.67
2019-04-26T04:12:50.569Z,8.70
2019-04-26T04:15:27.117Z,8.33
2019-04-26T04:18:03.613Z,8.63
2019-04-26T04:21:37.482Z,8.80
2019-04-26T04:24:13.120Z,9.03
2019-04-26T04:27:02.198Z,9.20
2019-04-26T04:29:44.782Z,9.10
2019-04-26T04:32:18.149Z,9.20
2019-04-26T04:34:50.192Z,23.60
2019-04-26T04:37:21.250Z,19.80
2019-04-26T04:40:23.816Z,17.00
2019-04-26T04:43:36.787Z,21.90
2019-04-26T04:46:54.138Z,13.50
2019-04-26T04:49:48.953Z,17.57
2019-04-26T04:52:34.710Z,25.20
2019-04-26T04:55:14.204Z,14.30
2019-04-26T04:58:04.214Z,17.40
2019-04-26T05:01:18.599Z,19.10
2019-04-26T05:03:58.999Z,11.90
2019-04-26T05:07:07.497Z,9.83
2019-04-26T05:09:45.487Z,9.53
2019-04-26T05:12:22.377Z,9.73
2019-04-26T05:15:56.531Z,9.73
2019-04-26T05:18:54.811Z,9.70
2019-04-26T05:21:40.985Z,9.17
2019-04-26T05:24:35.026Z,9.40
2019-04-26T05:27:27.775Z,10.27
2019-04-26T05:30:35.665Z,10.03
2019-04-26T05:33:32.871Z,10.40
2019-04-26T05:36:31.182Z,10.60
2019-04-26T05:39:08.048Z,10.57
2019-04-26T05:42:16.963Z,10.43
2019-04-26T05:46:10.427Z,9.57
2019-04-26T05:48:59.705Z,9.63
2019-04-26T05:51:53.833Z,9.47
2019-04-26T05:54:52.691Z,9.67
2019-04-26T05:57:52.629Z,9.93
2019-04-26T06:00:43.529Z,9.37
2019-04-26T06:03:31.527Z,9.17
2019-04-26T06:06:29.499Z,9.77
2019-04-26T06:09:31.933Z,13.30
2019-04-26T06:12:19.812Z,17.27
2019-04-26T06:15:22.011Z,12.20
2019-04-26T06:18:18.194Z,10.50
2019-04-26T06:21:19.895Z,9.50
2019-04-26T06:24:12.554Z,8.93
2019-04-26T06:27:23.751Z,9.30
2019-04-26T06:30:03.348Z,9.33
2019-04-26T06:33:10.957Z,9.87
2019-04-26T06:35:45.045Z,9.47
2019-04-26T06:39:05.699Z,10.00
2019-04-26T06:42:28.355Z,9.67
2019-04-26T06:45:40.259Z,10.30
2019-04-26T06:48:36.900Z,18.43
2019-04-26T06:51:24.173Z,12.30
2019-04-26T06:54:09.720Z,9.90
2019-04-26T06:57:29.666Z,9.10
2019-04-26T07:00:12.062Z,8.70
2019-04-26T07:03:25.412Z,10.10
2019-04-26T07:06:00.380Z,9.03
2019-04-26T07:08:43.001Z,9.30
2019-04-26T07:12:07.872Z,8.53
2019-04-26T07:15:27.726Z,9.57
2019-04-26T07:17:54.461Z,9.37
2019-04-26T07:20:34.265Z,9.47
2019-04-26T07:23:53.436Z,9.87
2019-04-26T07:26:57.939Z,14.10
2019-04-26T07:30:03.202Z,17.00
2019-04-26T07:32:59.843Z,37.37
2019-04-26T07:35:46.747Z,29.77
2019-04-26T07:38:54.068Z,15.03
2019-04-26T07:42:05.752Z,10.80
2019-04-26T07:45:13.820Z,8.93
2019-04-26T07:48:33.120Z,9.03
2019-04-26T07:51:41.638Z,7.50
2019-04-26T07:55:03.218Z,8.17
2019-04-26T07:58:03.558Z,10.60
2019-04-26T08:00:45.363Z,10.57
2019-04-26T08:03:39.508Z,10.70
2019-04-26T08:06:24.649Z,14.00
2019-04-26T08:09:25.161Z,12.87
2019-04-26T08:11:52.441Z,8.30
2019-04-26T08:14:50.537Z,7.83
2019-04-26T08:18:05.191Z,7.10
2019-04-26T08:20:48.205Z,6.87
2019-04-26T08:23:52.423Z,7.30
2019-04-26T08:26:22.962Z,6.90
2019-04-26T08:28:56.571Z,7.73
2019-04-26T08:31:28.305Z,7.07
2019-04-26T08:34:04.245Z,14.80
2019-04-26T08:36:40.882Z,13.63
2019-04-26T08:39:18.531Z,13.87
2019-04-26T08:41:49.783Z,12.00
2019-04-26T08:44:34.551Z,13.17
2019-04-26T08:47:26.355Z,12.07
2019-04-26T08:50:13.672Z,8.83
2019-04-26T08:52:46.374Z,7.20
2019-04-26T08:55:18.409Z,7.10
2019-04-26T08:57:51.985Z,7.53
2019-04-26T09:00:32.407Z,7.17
2019-04-26T09:03:11.587Z,7.30
2019-04-26T09:06:04.038Z,7.10
2019-04-26T09:08:39.305Z,6.53
2019-04-26T09:11:21.970Z,6.50
2019-04-26T09:13:44.446Z,6.93
2019-04-26T09:16:21.135Z,12.10
2019-04-26T09:18:54.306Z,11.00
2019-04-26T09:21:29.135Z,7.80
2019-04-26T09:24:17.288Z,5.87
2019-04-26T09:26:56.789Z,6.23
2019-04-26T09:30:00.595Z,5.40
2019-04-26T09:32:42.826Z,5.83
2019-04-26T09:35:15.301Z,6.40
2019-04-26T09:37:43.158Z,6.03
2019-04-26T09:40:19.723Z,6.50
2019-04-26T09:42:49.578Z,6.70
2019-04-26T09:45:40.670Z,5.73
2019-04-26T09:48:15.223Z,12.53
2019-04-26T09:50:47.126Z,18.43
2019-04-26T09:53:20.634Z,12.87
2019-04-26T09:55:50.199Z,8.03
2019-04-26T09:58:20.081Z,6.73
2019-04-26T10:00:50.325Z,7.13
2019-04-26T10:03:19.590Z,6.20
2019-04-26T10:05:52.159Z,5.83
2019-04-26T10:08:22.183Z,6.23
2019-04-26T10:10:51.742Z,6.20
2019-04-26T10:13:52.094Z,6.10
2019-04-26T10:16:46.649Z,6.93
2019-04-26T10:19:20.405Z,6.43
2019-04-26T10:21:49.607Z,6.57
2019-04-26T10:24:18.908Z,6.70
2019-04-26T10:26:48.625Z,6.30
2019-04-26T10:29:17.789Z,7.50
2019-04-26T10:31:51.814Z,6.23
2019-04-26T10:34:19.221Z,7.10
2019-04-26T10:36:48.842Z,6.53
2019-04-26T10:39:19.156Z,6.10
2019-04-26T10:41:48.419Z,5.87
2019-04-26T10:44:19.717Z,6.00
2019-04-26T10:46:55.462Z,6.10
2019-04-26T10:49:43.103Z,7.07
2019-04-26T10:52:33.944Z,6.47
2019-04-26T10:55:22.309Z,6.37
2019-04-26T10:57:53.412Z,6.30
2019-04-26T11:00:27.653Z,6.67
2019-04-26T11:03:00.109Z,7.10
2019-04-26T11:05:28.191Z,6.20
2019-04-26T11:07:57.675Z,6.63
2019-04-26T11:10:27.794Z,6.47
2019-04-26T11:12:56.946Z,6.20
2019-04-26T11:15:29.058Z,6.67
2019-04-26T11:17:57.336Z,7.17
2019-04-26T11:20:26.739Z,6.67
2019-04-26T11:22:56.375Z,6.27
2019-04-26T11:25:28.180Z,6.63
2019-04-26T11:27:56.578Z,5.87
2019-04-26T11:30:25.911Z,5.53
2019-04-26T11:32:55.389Z,5.30
2019-04-26T11:35:24.544Z,5.53
2019-04-26T11:37:55.349Z,6.33
2019-04-26T11:40:24.740Z,5.90
2019-04-26T11:42:53.891Z,5.20
2019-04-26T11:45:23.018Z,5.47
2019-04-26T11:47:56.237Z,5.50
2019-04-26T11:50:23.054Z,5.83
2019-04-26T11:52:54.627Z,5.13
2019-04-26T11:55:25.303Z,7.50
2019-04-26T11:57:57.362Z,5.33
2019-04-26T12:00:31.095Z,5.17
2019-04-26T12:03:00.489Z,5.13
2019-04-26T12:05:39.975Z,5.23
2019-04-26T12:08:12.466Z,4.60
2019-04-26T12:10:44.475Z,4.53
2019-04-26T12:13:15.281Z,4.20
2019-04-26T12:15:45.385Z,4.30
2019-04-26T12:18:15.020Z,3.63
2019-04-26T12:20:44.271Z,3.70
2019-04-26T12:23:20.374Z,3.77
2019-04-26T12:25:48.078Z,3.90
2019-04-26T12:28:15.774Z,4.20
2019-04-26T12:30:44.966Z,4.03
2019-04-26T12:33:14.104Z,4.03
2019-04-26T12:35:43.388Z,4.10
2019-04-26T12:38:12.532Z,4.27
2019-04-26T12:40:42.392Z,4.00
2019-04-26T12:43:12.294Z,3.87
2019-04-26T12:45:59.360Z,3.93
2019-04-26T12:48:28.632Z,4.33
2019-04-26T12:50:59.199Z,3.90
2019-04-26T12:53:31.324Z,3.20
2019-04-26T12:56:06.402Z,3.30
2019-04-26T12:58:35.675Z,4.30
2019-04-26T13:01:07.985Z,3.10
2019-04-26T13:03:36.905Z,2.87
2019-04-26T13:06:06.222Z,3.03
2019-04-26T13:08:35.500Z,2.73
2019-04-26T13:11:29.838Z,3.00
2019-04-26T13:14:20.603Z,2.93
2019-04-26T13:17:05.968Z,2.40
2019-04-26T13:19:35.042Z,2.53
2019-04-26T13:22:04.405Z,2.77
2019-04-26T13:24:35.480Z,2.20
2019-04-26T13:27:06.166Z,2.80
2019-04-26T13:29:35.613Z,3.00
2019-04-26T13:32:05.033Z,2.63
2019-04-26T13:34:37.216Z,2.63
2019-04-26T13:37:06.658Z,2.97
2019-04-26T13:39:35.899Z,2.73
2019-04-26T13:42:09.317Z,2.50
2019-04-26T13:45:01.199Z,2.30
2019-04-26T13:47:39.985Z,2.40
2019-04-26T13:50:26.663Z,2.80
2019-04-26T13:52:56.432Z,2.57
2019-04-26T13:55:29.525Z,2.23
2019-04-26T13:57:56.568Z,2.37
2019-04-26T14:00:29.115Z,2.40
2019-04-26T14:02:58.316Z,2.97
2019-04-26T14:05:27.645Z,2.30
2019-04-26T14:07:56.938Z,2.50
2019-04-26T14:10:26.159Z,2.40
2019-04-26T14:12:55.482Z,2.53
2019-04-26T14:15:24.793Z,2.20
2019-04-26T14:17:54.042Z,2.23
2019-04-26T14:20:24.480Z,2.80
2019-04-26T14:23:02.308Z,2.87
2019-04-26T14:25:41.526Z,2.30
2019-04-26T14:28:10.665Z,2.43
2019-04-26T14:30:48.957Z,2.60
2019-04-26T14:33:18.171Z,2.30
2019-04-26T14:35:50.607Z,3.30
2019-04-26T14:38:27.614Z,2.20
2019-04-26T14:41:03.229Z,1.97
2019-04-26T14:43:22.408Z,2.33
2019-04-26T14:45:56.001Z,2.10
2019-04-26T14:48:35.430Z,2.03
2019-04-26T14:51:07.193Z,2.87
2019-04-26T14:53:25.231Z,4.63
2019-04-26T14:55:55.678Z,4.30
2019-04-26T14:58:29.983Z,3.73
2019-04-26T15:00:59.119Z,3.70
2019-04-26T15:03:58.382Z,2.73
2019-04-26T15:06:32.258Z,2.30
2019-04-26T15:09:03.407Z,2.20
2019-04-26T15:11:36.162Z,2.00
2019-04-26T15:14:03.762Z,2.37
2019-04-26T15:16:33.071Z,2.50
2019-04-26T15:19:02.456Z,2.70
2019-04-26T15:21:34.255Z,2.57
2019-04-26T15:24:02.916Z,2.37
2019-04-26T15:26:33.493Z,3.43
2019-04-26T15:29:04.494Z,2.30
2019-04-26T15:31:33.838Z,2.60
2019-04-26T15:34:04.496Z,2.10
2019-04-26T15:36:36.160Z,2.53
2019-04-26T15:39:09.624Z,2.50
2019-04-26T15:42:00.728Z,3.03
2019-04-26T15:44:39.778Z,2.53
2019-04-26T15:47:28.057Z,2.70
2019-04-26T15:50:11.059Z,2.67
2019-04-26T15:52:42.362Z,2.30
2019-04-26T15:55:13.218Z,2.93
2019-04-26T15:57:43.334Z,2.60
2019-04-26T16:00:12.634Z,2.50
2019-04-26T16:02:42.734Z,2.20
2019-04-26T16:05:12.411Z,2.30
2019-04-26T16:07:43.044Z,2.30
2019-04-26T16:10:13.318Z,2.73
2019-04-26T16:12:45.279Z,1.97
2019-04-26T16:15:15.209Z,2.80
2019-04-26T16:17:45.815Z,2.00
2019-04-26T16:20:18.286Z,2.20
2019-04-26T16:22:49.234Z,2.47
2019-04-26T16:25:19.032Z,2.70
2019-04-26T16:27:53.323Z,2.60
2019-04-26T16:30:32.587Z,2.73
2019-04-26T16:33:15.013Z,1.97
2019-04-26T16:35:44.777Z,2.80
2019-04-26T16:38:34.842Z,2.67
2019-04-26T16:41:04.616Z,2.30
2019-04-26T16:43:40.010Z,2.10
2019-04-26T16:46:05.986Z,2.17
2019-04-26T16:48:39.031Z,2.57
2019-04-26T16:51:09.015Z,2.20
2019-04-26T16:54:02.161Z,2.07
2019-04-26T16:56:15.577Z,2.13
2019-04-26T16:58:54.788Z,2.20
2019-04-26T17:01:33.368Z,2.10
2019-04-26T17:04:04.165Z,2.03
2019-04-26T17:06:33.691Z,2.50
2019-04-26T17:09:05.235Z,2.40
2019-04-26T17:11:37.858Z,2.87
2019-04-26T17:14:09.941Z,3.03
2019-04-26T17:16:38.158Z,2.40
2019-04-26T17:19:09.755Z,2.20
2019-04-26T17:21:45.325Z,2.27
2019-04-26T17:24:38.045Z,2.13
2019-04-26T17:27:12.959Z,2.80
2019-04-26T17:29:42.333Z,3.27
2019-04-26T17:32:15.515Z,2.70
2019-04-26T17:34:43.381Z,2.20
2019-04-26T17:37:17.265Z,2.63
2019-04-26T17:39:52.145Z,3.57
2019-04-26T17:42:25.333Z,2.90
2019-04-26T18:02:31.259Z,3.37
2019-04-26T18:04:57.824Z,2.67
2019-04-26T18:07:39.245Z,4.47
2019-04-26T18:09:47.570Z,3.60
2019-04-26T18:12:17.368Z,2.70
2019-04-26T18:14:46.880Z,2.93
2019-04-26T18:17:25.767Z,2.80
2019-04-26T18:20:16.817Z,2.63
2019-04-26T18:22:51.207Z,3.00
2019-04-26T18:25:20.407Z,2.63
2019-04-26T18:27:49.591Z,3.00
2019-04-26T18:30:24.970Z,2.70
2019-04-26T18:32:54.401Z,2.80
2019-04-26T18:35:24.599Z,2.47
2019-04-26T18:37:54.204Z,2.67
2019-04-26T18:40:23.443Z,3.10
2019-04-26T18:42:53.027Z,2.60
2019-04-26T18:45:28.859Z,2.80
2019-04-26T18:48:00.914Z,2.80
2019-04-26T18:50:28.422Z,3.40
2019-04-26T18:53:14.327Z,2.57
2019-04-26T18:55:43.993Z,2.33
2019-04-26T18:58:14.201Z,2.60
2019-04-26T19:00:44.715Z,2.70
2019-04-26T19:03:15.993Z,3.10
2019-04-26T19:05:46.272Z,3.00
2019-04-26T19:08:15.473Z,2.87
2019-04-26T19:10:44.921Z,2.60
2019-04-26T19:13:25.544Z,2.80
2019-04-26T19:16:03.578Z,3.17
2019-04-26T19:18:52.919Z,2.80
2019-04-26T19:21:32.223Z,2.60
2019-04-26T19:24:07.654Z,3.10
2019-04-26T19:26:34.875Z,3.60
2019-04-26T19:29:09.926Z,3.70
2019-04-26T19:31:34.088Z,2.70
2019-04-26T19:34:03.325Z,3.47
2019-04-26T19:36:32.986Z,3.07
2019-04-26T19:39:03.646Z,2.67
2019-04-26T19:41:33.358Z,2.90
2019-04-26T19:44:02.923Z,3.60
2019-04-26T19:46:45.119Z,3.40
2019-04-26T19:49:36.634Z,3.87
2019-04-26T19:52:11.634Z,4.33
2019-04-26T19:54:52.919Z,4.57
2019-04-26T19:57:25.521Z,4.37
2019-04-26T19:59:54.617Z,4.27
2019-04-26T20:02:26.850Z,4.07
2019-04-26T20:04:54.878Z,4.67
2019-04-26T20:07:28.334Z,4.53
2019-04-26T20:10:02.627Z,4.90
2019-04-26T20:12:29.499Z,4.93
2019-04-26T20:15:00.059Z,4.63
2019-04-26T20:17:30.998Z,3.87
2019-04-26T20:20:01.917Z,4.13
2019-04-26T20:22:32.085Z,4.43
2019-04-26T20:25:02.452Z,3.87
2019-04-26T20:27:32.455Z,4.60
2019-04-26T20:30:02.473Z,4.13
2019-04-26T20:32:35.364Z,4.00
2019-04-26T20:35:19.719Z,4.20
2019-04-26T20:37:47.573Z,4.30
2019-04-26T20:40:22.216Z,4.50
2019-04-26T20:42:47.946Z,4.10
2019-04-26T20:45:17.577Z,4.60
2019-04-26T20:47:51.274Z,4.47
2019-04-26T20:50:19.193Z,4.20
2019-04-26T20:52:48.545Z,4.53
2019-04-26T20:55:17.885Z,4.60
2019-04-26T20:57:47.302Z,4.50
2019-04-26T21:00:16.787Z,5.20
2019-04-26T21:02:46.091Z,4.90
2019-04-26T21:05:15.450Z,4.70
2019-04-26T21:07:49.480Z,5.50
2019-04-26T21:10:21.913Z,5.43
2019-04-26T21:12:47.346Z,5.10
2019-04-26T21:15:20.184Z,4.73
2019-04-26T21:17:49.299Z,5.30
2019-04-26T21:20:18.645Z,5.27
2019-04-26T21:22:49.744Z,5.33
2019-04-26T21:25:32.540Z,5.00
2019-04-26T21:28:08.084Z,5.10
2019-04-26T21:30:55.103Z,5.27
2019-04-26T21:33:28.797Z,5.73
2019-04-26T21:36:07.949Z,5.90
2019-04-26T21:38:47.748Z,5.57
2019-04-26T21:41:19.542Z,6.10
2019-04-26T21:43:48.944Z,6.40
2019-04-26T21:46:19.284Z,15.17
2019-04-26T21:48:49.434Z,6.40
2019-04-26T21:51:18.844Z,5.70
2019-04-26T21:53:48.714Z,6.30
2019-04-26T21:56:19.966Z,6.43
2019-04-26T21:58:49.078Z,6.73
2019-04-26T22:01:23.475Z,6.27
2019-04-26T22:04:00.252Z,6.23
2019-04-26T22:06:29.357Z,6.47
2019-04-26T22:09:09.146Z,6.80
2019-04-26T22:11:38.360Z,6.43
2019-04-26T22:14:19.256Z,7.40
2019-04-26T22:16:53.373Z,6.77
2019-04-26T22:19:40.238Z,7.60
2019-04-26T22:22:31.426Z,9.67
2019-04-26T22:25:03.949Z,8.50
2019-04-26T22:27:33.330Z,7.50
2019-04-26T22:30:03.933Z,8.47
2019-04-26T22:32:33.341Z,8.80
2019-04-26T22:35:03.295Z,8.53
2019-04-26T22:37:33.703Z,10.13
2019-04-26T22:40:03.681Z,10.00
2019-04-26T22:42:39.861Z,10.43
2019-04-26T22:45:14.456Z,9.13
2019-04-26T22:47:49.261Z,9.90
2019-04-26T22:50:20.994Z,9.07
2019-04-26T22:52:51.523Z,8.17
2019-04-26T22:55:23.968Z,7.60
2019-04-26T22:57:52.928Z,7.03
2019-04-26T23:00:27.890Z,6.63
2019-04-26T23:02:58.064Z,5.80
2019-04-26T23:05:25.355Z,5.90
2019-04-26T23:07:54.683Z,6.33
2019-04-26T23:10:31.172Z,5.77
2019-04-26T23:13:10.097Z,5.00
2019-04-26T23:15:47.284Z,4.87
2019-04-26T23:18:38.828Z,5.20
2019-04-26T23:21:12.052Z,5.70
2019-04-26T23:23:40.944Z,6.57
2019-04-26T23:26:10.080Z,7.10
2019-04-26T23:28:39.280Z,8.77
2019-04-26T23:31:09.238Z,8.63
2019-04-26T23:33:38.398Z,7.20
2019-04-26T23:36:07.424Z,7.47
2019-04-26T23:38:37.625Z,7.60
2019-04-26T23:41:07.524Z,7.93
2019-04-26T23:43:36.924Z,7.90
2019-04-26T23:46:06.073Z,7.67
2019-04-26T23:48:35.140Z,7.97
2019-04-26T23:51:08.235Z,8.07
2019-04-26T23:53:35.922Z,8.70
2019-04-26T23:56:05.556Z,8.07
2019-04-26T23:58:36.205Z,8.50
